sensor_id;sensor_type;location;lat;lon;timestamp;P1;durP1;ratioP1;P2;durP2;ratioP2
74963;SDS011;63521;51.900;4.748;2023-02-20T00:01:02;4.68;;;1.80;;
74963;SDS011;63521;51.900;4.748;2023-02-20T00:03:28;2.65;;;1.58;;
74963;SDS011;63521;51.900;4.748;2023-02-20T00:05:55;3.15;;;1.55;;
74963;SDS011;63521;51.900;4.748;2023-02-20T00:08:21;2.55;;;1.60;;
74963;SDS011;63521;51.900;4.748;2023-02-20T00:10:47;3.25;;;1.42;;
74963;SDS011;63521;51.900;4.748;2023-02-20T00:13:13;4.00;;;1.55;;
74963;SDS011;63521;51.900;4.748;2023-02-20T00:15:39;3.15;;;1.60;;
74963;SDS011;63521;51.900;4.748;2023-02-20T00:18:04;3.53;;;1.48;;
74963;SDS011;63521;51.900;4.748;2023-02-20T00:20:31;3.00;;;1.58;;
74963;SDS011;63521;51.900;4.748;2023-02-20T00:22:57;3.17;;;1.60;;
74963;SDS011;63521;51.900;4.748;2023-02-20T00:25:22;3.38;;;1.65;;
74963;SDS011;63521;51.900;4.748;2023-02-20T00:27:49;3.38;;;1.73;;
74963;SDS011;63521;51.900;4.748;2023-02-20T00:30:18;3.53;;;1.90;;
74963;SDS011;63521;51.900;4.748;2023-02-20T00:32:46;4.13;;;1.67;;
74963;SDS011;63521;51.900;4.748;2023-02-20T00:35:13;3.80;;;1.70;;
74963;SDS011;63521;51.900;4.748;2023-02-20T00:37:38;4.70;;;2.10;;
74963;SDS011;63521;51.900;4.748;2023-02-20T00:40:04;3.15;;;1.63;;
74963;SDS011;63521;51.900;4.748;2023-02-20T00:42:30;4.07;;;1.70;;
74963;SDS011;63521;51.900;4.748;2023-02-20T00:44:56;3.75;;;1.95;;
74963;SDS011;63521;51.900;4.748;2023-02-20T00:47:21;2.42;;;1.58;;
74963;SDS011;63521;51.900;4.748;2023-02-20T00:49:46;3.47;;;1.77;;
74963;SDS011;63521;51.900;4.748;2023-02-20T00:52:12;4.07;;;1.80;;
74963;SDS011;63521;51.900;4.748;2023-02-20T00:54:37;4.63;;;1.85;;
74963;SDS011;63521;51.900;4.748;2023-02-20T00:57:03;3.72;;;1.98;;
74963;SDS011;63521;51.900;4.748;2023-02-20T00:59:28;2.75;;;1.55;;
74963;SDS011;63521;51.900;4.748;2023-02-20T01:01:54;3.45;;;1.75;;
74963;SDS011;63521;51.900;4.748;2023-02-20T01:04:21;3.85;;;2.05;;
74963;SDS011;63521;51.900;4.748;2023-02-20T01:06:46;2.97;;;1.55;;
74963;SDS011;63521;51.900;4.748;2023-02-20T01:09:12;3.17;;;1.70;;
74963;SDS011;63521;51.900;4.748;2023-02-20T01:11:37;3.47;;;1.70;;
74963;SDS011;63521;51.900;4.748;2023-02-20T01:14:03;4.15;;;2.15;;
74963;SDS011;63521;51.900;4.748;2023-02-20T01:16:28;4.88;;;2.25;;
74963;SDS011;63521;51.900;4.748;2023-02-20T01:18:55;3.40;;;1.80;;
74963;SDS011;63521;51.900;4.748;2023-02-20T01:21:20;4.97;;;2.03;;
74963;SDS011;63521;51.900;4.748;2023-02-20T01:23:46;3.80;;;1.98;;
74963;SDS011;63521;51.900;4.748;2023-02-20T01:26:15;3.85;;;2.15;;
74963;SDS011;63521;51.900;4.748;2023-02-20T01:28:44;3.75;;;2.05;;
74963;SDS011;63521;51.900;4.748;2023-02-20T01:31:15;5.13;;;2.10;;
74963;SDS011;63521;51.900;4.748;2023-02-20T01:33:41;4.93;;;2.28;;
74963;SDS011;63521;51.900;4.748;2023-02-20T01:36:07;5.60;;;2.53;;
74963;SDS011;63521;51.900;4.748;2023-02-20T01:38:33;6.47;;;2.53;;
74963;SDS011;63521;51.900;4.748;2023-02-20T01:40:58;3.83;;;2.30;;
74963;SDS011;63521;51.900;4.748;2023-02-20T01:43:24;4.60;;;2.15;;
74963;SDS011;63521;51.900;4.748;2023-02-20T01:45:50;3.78;;;2.13;;
74963;SDS011;63521;51.900;4.748;2023-02-20T01:48:20;5.13;;;2.53;;
74963;SDS011;63521;51.900;4.748;2023-02-20T01:50:47;6.32;;;2.55;;
74963;SDS011;63521;51.900;4.748;2023-02-20T01:53:14;5.97;;;3.22;;
74963;SDS011;63521;51.900;4.748;2023-02-20T01:55:51;5.60;;;3.15;;
74963;SDS011;63521;51.900;4.748;2023-02-20T01:58:20;4.93;;;2.50;;
74963;SDS011;63521;51.900;4.748;2023-02-20T02:00:48;5.47;;;2.90;;
74963;SDS011;63521;51.900;4.748;2023-02-20T02:03:23;6.03;;;2.88;;
74963;SDS011;63521;51.900;4.748;2023-02-20T02:05:53;7.78;;;3.40;;
74963;SDS011;63521;51.900;4.748;2023-02-20T02:08:23;7.28;;;3.35;;
74963;SDS011;63521;51.900;4.748;2023-02-20T02:10:58;8.05;;;3.45;;
74963;SDS011;63521;51.900;4.748;2023-02-20T02:13:26;6.90;;;3.58;;
74963;SDS011;63521;51.900;4.748;2023-02-20T02:15:52;7.30;;;3.40;;
74963;SDS011;63521;51.900;4.748;2023-02-20T02:18:56;9.82;;;3.75;;
74963;SDS011;63521;51.900;4.748;2023-02-20T02:38:46;10.02;;;4.18;;
74963;SDS011;63521;51.900;4.748;2023-02-20T02:44:07;9.43;;;4.68;;
74963;SDS011;63521;51.900;4.748;2023-02-20T02:46:49;10.45;;;4.35;;
74963;SDS011;63521;51.900;4.748;2023-02-20T02:52:07;8.40;;;4.35;;
74963;SDS011;63521;51.900;4.748;2023-02-20T02:54:33;11.73;;;4.68;;
74963;SDS011;63521;51.900;4.748;2023-02-20T02:57:22;8.32;;;4.38;;
74963;SDS011;63521;51.900;4.748;2023-02-20T02:59:48;9.18;;;4.45;;
74963;SDS011;63521;51.900;4.748;2023-02-20T03:02:18;9.90;;;4.68;;
74963;SDS011;63521;51.900;4.748;2023-02-20T03:04:44;9.85;;;4.75;;
74963;SDS011;63521;51.900;4.748;2023-02-20T03:07:13;11.18;;;5.00;;
74963;SDS011;63521;51.900;4.748;2023-02-20T03:09:45;10.55;;;4.28;;
74963;SDS011;63521;51.900;4.748;2023-02-20T03:12:18;10.00;;;4.60;;
74963;SDS011;63521;51.900;4.748;2023-02-20T03:17:57;9.73;;;4.72;;
74963;SDS011;63521;51.900;4.748;2023-02-20T03:20:34;11.68;;;4.57;;
74963;SDS011;63521;51.900;4.748;2023-02-20T03:23:00;10.82;;;4.97;;
74963;SDS011;63521;51.900;4.748;2023-02-20T03:25:51;10.23;;;4.68;;
74963;SDS011;63521;51.900;4.748;2023-02-20T03:33:17;9.57;;;4.77;;
74963;SDS011;63521;51.900;4.748;2023-02-20T03:36:05;9.68;;;4.88;;
74963;SDS011;63521;51.900;4.748;2023-02-20T03:38:57;11.13;;;5.10;;
74963;SDS011;63521;51.900;4.748;2023-02-20T03:41:44;9.30;;;4.63;;
74963;SDS011;63521;51.900;4.748;2023-02-20T03:44:30;9.18;;;4.70;;
74963;SDS011;63521;51.900;4.748;2023-02-20T03:46:59;9.75;;;4.40;;
74963;SDS011;63521;51.900;4.748;2023-02-20T03:49:27;12.93;;;5.28;;
74963;SDS011;63521;51.900;4.748;2023-02-20T03:51:56;9.95;;;5.00;;
74963;SDS011;63521;51.900;4.748;2023-02-20T03:54:21;11.52;;;5.35;;
74963;SDS011;63521;51.900;4.748;2023-02-20T03:56:48;10.68;;;5.68;;
74963;SDS011;63521;51.900;4.748;2023-02-20T04:01:54;11.02;;;5.10;;
74963;SDS011;63521;51.900;4.748;2023-02-20T04:04:24;11.85;;;5.40;;
74963;SDS011;63521;51.900;4.748;2023-02-20T04:06:52;10.40;;;5.00;;
74963;SDS011;63521;51.900;4.748;2023-02-20T04:09:23;13.98;;;5.32;;
74963;SDS011;63521;51.900;4.748;2023-02-20T04:11:53;11.25;;;4.82;;
74963;SDS011;63521;51.900;4.748;2023-02-20T04:14:22;11.27;;;4.82;;
74963;SDS011;63521;51.900;4.748;2023-02-20T04:16:50;12.50;;;5.28;;
74963;SDS011;63521;51.900;4.748;2023-02-20T04:19:18;10.70;;;5.07;;
74963;SDS011;63521;51.900;4.748;2023-02-20T04:21:45;9.88;;;4.57;;
74963;SDS011;63521;51.900;4.748;2023-02-20T04:24:17;10.57;;;5.18;;
74963;SDS011;63521;51.900;4.748;2023-02-20T04:26:45;10.85;;;4.82;;
74963;SDS011;63521;51.900;4.748;2023-02-20T04:29:12;13.60;;;5.30;;
74963;SDS011;63521;51.900;4.748;2023-02-20T04:31:37;13.63;;;5.50;;
74963;SDS011;63521;51.900;4.748;2023-02-20T04:34:04;9.60;;;4.88;;
74963;SDS011;63521;51.900;4.748;2023-02-20T04:36:30;13.68;;;5.68;;
74963;SDS011;63521;51.900;4.748;2023-02-20T04:38:57;11.65;;;5.43;;
74963;SDS011;63521;51.900;4.748;2023-02-20T04:41:22;11.75;;;5.60;;
74963;SDS011;63521;51.900;4.748;2023-02-20T04:43:48;18.20;;;6.07;;
74963;SDS011;63521;51.900;4.748;2023-02-20T04:46:13;12.90;;;5.57;;
74963;SDS011;63521;51.900;4.748;2023-02-20T04:48:39;13.48;;;5.43;;
74963;SDS011;63521;51.900;4.748;2023-02-20T04:51:05;13.05;;;5.20;;
74963;SDS011;63521;51.900;4.748;2023-02-20T04:53:30;13.48;;;5.93;;
74963;SDS011;63521;51.900;4.748;2023-02-20T04:55:55;14.13;;;5.50;;
74963;SDS011;63521;51.900;4.748;2023-02-20T04:58:21;10.95;;;5.18;;
74963;SDS011;63521;51.900;4.748;2023-02-20T05:00:47;10.35;;;5.00;;
74963;SDS011;63521;51.900;4.748;2023-02-20T05:03:13;11.63;;;5.60;;
74963;SDS011;63521;51.900;4.748;2023-02-20T05:05:39;11.57;;;5.72;;
74963;SDS011;63521;51.900;4.748;2023-02-20T05:08:06;11.23;;;4.85;;
74963;SDS011;63521;51.900;4.748;2023-02-20T05:10:32;12.55;;;4.80;;
74963;SDS011;63521;51.900;4.748;2023-02-20T05:12:58;11.25;;;4.57;;
74963;SDS011;63521;51.900;4.748;2023-02-20T05:15:24;10.07;;;4.95;;
74963;SDS011;63521;51.900;4.748;2023-02-20T05:17:52;11.20;;;5.10;;
74963;SDS011;63521;51.900;4.748;2023-02-20T05:20:19;9.75;;;4.70;;
74963;SDS011;63521;51.900;4.748;2023-02-20T05:22:45;10.50;;;4.10;;
74963;SDS011;63521;51.900;4.748;2023-02-20T05:25:13;9.45;;;4.65;;
74963;SDS011;63521;51.900;4.748;2023-02-20T05:27:40;10.88;;;4.55;;
74963;SDS011;63521;51.900;4.748;2023-02-20T05:30:07;9.07;;;4.20;;
74963;SDS011;63521;51.900;4.748;2023-02-20T05:32:33;12.80;;;4.40;;
74963;SDS011;63521;51.900;4.748;2023-02-20T05:34:59;11.30;;;4.97;;
74963;SDS011;63521;51.900;4.748;2023-02-20T05:37:25;11.35;;;4.72;;
74963;SDS011;63521;51.900;4.748;2023-02-20T05:39:52;9.15;;;4.07;;
74963;SDS011;63521;51.900;4.748;2023-02-20T05:42:18;14.35;;;4.57;;
74963;SDS011;63521;51.900;4.748;2023-02-20T05:44:45;9.57;;;4.60;;
74963;SDS011;63521;51.900;4.748;2023-02-20T05:47:10;9.23;;;3.92;;
74963;SDS011;63521;51.900;4.748;2023-02-20T05:49:36;10.55;;;4.30;;
74963;SDS011;63521;51.900;4.748;2023-02-20T05:52:02;8.98;;;3.78;;
74963;SDS011;63521;51.900;4.748;2023-02-20T05:54:35;12.23;;;4.38;;
74963;SDS011;63521;51.900;4.748;2023-02-20T05:57:03;9.35;;;4.22;;
74963;SDS011;63521;51.900;4.748;2023-02-20T05:59:29;10.18;;;3.55;;
74963;SDS011;63521;51.900;4.748;2023-02-20T06:01:55;10.57;;;4.05;;
74963;SDS011;63521;51.900;4.748;2023-02-20T06:04:21;9.68;;;3.70;;
74963;SDS011;63521;51.900;4.748;2023-02-20T06:06:46;8.63;;;3.80;;
74963;SDS011;63521;51.900;4.748;2023-02-20T06:09:12;8.52;;;3.60;;
74963;SDS011;63521;51.900;4.748;2023-02-20T06:11:40;11.27;;;4.18;;
74963;SDS011;63521;51.900;4.748;2023-02-20T06:14:06;9.48;;;3.67;;
74963;SDS011;63521;51.900;4.748;2023-02-20T06:16:32;7.00;;;3.20;;
74963;SDS011;63521;51.900;4.748;2023-02-20T06:18:58;7.82;;;3.53;;
74963;SDS011;63521;51.900;4.748;2023-02-20T06:21:24;8.30;;;3.35;;
74963;SDS011;63521;51.900;4.748;2023-02-20T06:23:51;9.98;;;3.67;;
74963;SDS011;63521;51.900;4.748;2023-02-20T06:26:17;7.15;;;3.30;;
74963;SDS011;63521;51.900;4.748;2023-02-20T06:28:42;5.88;;;2.97;;
74963;SDS011;63521;51.900;4.748;2023-02-20T06:31:08;6.32;;;3.15;;
74963;SDS011;63521;51.900;4.748;2023-02-20T06:33:36;6.88;;;3.00;;
74963;SDS011;63521;51.900;4.748;2023-02-20T06:36:05;6.97;;;3.08;;
74963;SDS011;63521;51.900;4.748;2023-02-20T06:41:51;7.15;;;2.70;;
74963;SDS011;63521;51.900;4.748;2023-02-20T06:44:16;6.63;;;3.42;;
74963;SDS011;63521;51.900;4.748;2023-02-20T06:46:51;7.93;;;3.08;;
74963;SDS011;63521;51.900;4.748;2023-02-20T06:49:48;8.00;;;3.63;;
74963;SDS011;63521;51.900;4.748;2023-02-20T06:52:13;9.82;;;3.25;;
74963;SDS011;63521;51.900;4.748;2023-02-20T06:54:40;10.27;;;3.45;;
74963;SDS011;63521;51.900;4.748;2023-02-20T06:57:05;5.38;;;2.50;;
74963;SDS011;63521;51.900;4.748;2023-02-20T06:59:31;5.03;;;2.55;;
74963;SDS011;63521;51.900;4.748;2023-02-20T07:02:03;8.18;;;2.90;;
74963;SDS011;63521;51.900;4.748;2023-02-20T07:04:29;10.45;;;3.22;;
74963;SDS011;63521;51.900;4.748;2023-02-20T07:06:55;7.13;;;2.72;;
74963;SDS011;63521;51.900;4.748;2023-02-20T07:09:21;7.03;;;3.03;;
74963;SDS011;63521;51.900;4.748;2023-02-20T07:11:46;7.13;;;2.78;;
74963;SDS011;63521;51.900;4.748;2023-02-20T07:14:14;8.60;;;3.40;;
74963;SDS011;63521;51.900;4.748;2023-02-20T07:16:39;7.10;;;3.10;;
74963;SDS011;63521;51.900;4.748;2023-02-20T07:19:05;6.35;;;2.85;;
74963;SDS011;63521;51.900;4.748;2023-02-20T07:21:30;10.43;;;3.15;;
74963;SDS011;63521;51.900;4.748;2023-02-20T07:23:56;6.72;;;2.47;;
74963;SDS011;63521;51.900;4.748;2023-02-20T07:26:23;10.35;;;2.85;;
74963;SDS011;63521;51.900;4.748;2023-02-20T07:28:49;6.85;;;2.33;;
74963;SDS011;63521;51.900;4.748;2023-02-20T07:31:15;5.38;;;2.47;;
74963;SDS011;63521;51.900;4.748;2023-02-20T07:33:40;7.00;;;2.65;;
74963;SDS011;63521;51.900;4.748;2023-02-20T07:36:09;8.65;;;2.45;;
74963;SDS011;63521;51.900;4.748;2023-02-20T07:38:35;8.23;;;2.72;;
74963;SDS011;63521;51.900;4.748;2023-02-20T07:41:01;6.70;;;2.45;;
74963;SDS011;63521;51.900;4.748;2023-02-20T07:43:26;6.63;;;2.15;;
74963;SDS011;63521;51.900;4.748;2023-02-20T07:45:52;9.48;;;2.65;;
74963;SDS011;63521;51.900;4.748;2023-02-20T07:48:17;4.90;;;2.22;;
74963;SDS011;63521;51.900;4.748;2023-02-20T07:50:43;7.32;;;2.25;;
74963;SDS011;63521;51.900;4.748;2023-02-20T07:53:09;6.32;;;3.05;;
74963;SDS011;63521;51.900;4.748;2023-02-20T07:55:38;6.45;;;2.28;;
74963;SDS011;63521;51.900;4.748;2023-02-20T07:58:03;5.43;;;2.50;;
74963;SDS011;63521;51.900;4.748;2023-02-20T08:00:29;7.35;;;2.50;;
74963;SDS011;63521;51.900;4.748;2023-02-20T08:02:54;7.10;;;2.67;;
74963;SDS011;63521;51.900;4.748;2023-02-20T08:05:21;6.97;;;2.70;;
74963;SDS011;63521;51.900;4.748;2023-02-20T08:07:47;6.75;;;2.53;;
74963;SDS011;63521;51.900;4.748;2023-02-20T08:10:14;6.78;;;2.80;;
74963;SDS011;63521;51.900;4.748;2023-02-20T08:12:41;8.30;;;2.80;;
74963;SDS011;63521;51.900;4.748;2023-02-20T08:15:06;8.18;;;2.67;;
74963;SDS011;63521;51.900;4.748;2023-02-20T08:17:34;7.57;;;2.38;;
74963;SDS011;63521;51.900;4.748;2023-02-20T08:19:59;6.22;;;2.40;;
74963;SDS011;63521;51.900;4.748;2023-02-20T08:22:25;6.20;;;2.35;;
74963;SDS011;63521;51.900;4.748;2023-02-20T08:24:51;5.00;;;2.35;;
74963;SDS011;63521;51.900;4.748;2023-02-20T08:27:17;6.10;;;2.47;;
74963;SDS011;63521;51.900;4.748;2023-02-20T08:29:43;5.68;;;2.40;;
74963;SDS011;63521;51.900;4.748;2023-02-20T08:32:09;4.65;;;2.50;;
74963;SDS011;63521;51.900;4.748;2023-02-20T08:34:36;5.15;;;2.47;;
74963;SDS011;63521;51.900;4.748;2023-02-20T08:37:01;7.32;;;2.58;;
74963;SDS011;63521;51.900;4.748;2023-02-20T08:39:27;6.47;;;2.42;;
74963;SDS011;63521;51.900;4.748;2023-02-20T08:41:53;5.22;;;2.42;;
74963;SDS011;63521;51.900;4.748;2023-02-20T08:44:18;7.65;;;2.60;;
74963;SDS011;63521;51.900;4.748;2023-02-20T08:46:44;4.57;;;2.33;;
74963;SDS011;63521;51.900;4.748;2023-02-20T08:49:13;6.63;;;2.53;;
74963;SDS011;63521;51.900;4.748;2023-02-20T08:51:42;6.38;;;2.30;;
74963;SDS011;63521;51.900;4.748;2023-02-20T08:54:11;5.05;;;2.40;;
74963;SDS011;63521;51.900;4.748;2023-02-20T08:56:36;5.70;;;2.55;;
74963;SDS011;63521;51.900;4.748;2023-02-20T08:59:02;5.13;;;2.28;;
74963;SDS011;63521;51.900;4.748;2023-02-20T09:01:27;5.80;;;2.03;;
74963;SDS011;63521;51.900;4.748;2023-02-20T09:03:53;6.00;;;2.20;;
74963;SDS011;63521;51.900;4.748;2023-02-20T09:06:18;7.05;;;2.55;;
74963;SDS011;63521;51.900;4.748;2023-02-20T09:08:44;5.00;;;2.40;;
74963;SDS011;63521;51.900;4.748;2023-02-20T09:11:09;6.60;;;2.15;;
74963;SDS011;63521;51.900;4.748;2023-02-20T09:13:45;6.90;;;2.38;;
74963;SDS011;63521;51.900;4.748;2023-02-20T09:16:11;7.82;;;2.60;;
74963;SDS011;63521;51.900;4.748;2023-02-20T09:18:37;5.22;;;2.22;;
74963;SDS011;63521;51.900;4.748;2023-02-20T09:21:03;4.45;;;2.47;;
74963;SDS011;63521;51.900;4.748;2023-02-20T09:23:32;4.65;;;2.33;;
74963;SDS011;63521;51.900;4.748;2023-02-20T09:25:58;8.00;;;3.22;;
74963;SDS011;63521;51.900;4.748;2023-02-20T09:28:23;6.68;;;2.55;;
74963;SDS011;63521;51.900;4.748;2023-02-20T09:30:49;5.20;;;2.00;;
74963;SDS011;63521;51.900;4.748;2023-02-20T09:33:18;8.85;;;2.80;;
74963;SDS011;63521;51.900;4.748;2023-02-20T09:35:44;7.82;;;3.03;;
74963;SDS011;63521;51.900;4.748;2023-02-20T09:38:09;6.68;;;2.90;;
74963;SDS011;63521;51.900;4.748;2023-02-20T09:40:35;7.95;;;2.78;;
74963;SDS011;63521;51.900;4.748;2023-02-20T09:43:07;5.20;;;2.47;;
74963;SDS011;63521;51.900;4.748;2023-02-20T09:45:41;6.18;;;2.45;;
74963;SDS011;63521;51.900;4.748;2023-02-20T09:48:14;6.20;;;2.70;;
74963;SDS011;63521;51.900;4.748;2023-02-20T09:50:50;5.28;;;2.67;;
74963;SDS011;63521;51.900;4.748;2023-02-20T09:53:26;10.68;;;3.10;;
74963;SDS011;63521;51.900;4.748;2023-02-20T09:55:57;6.72;;;2.67;;
74963;SDS011;63521;51.900;4.748;2023-02-20T09:58:28;8.82;;;3.53;;
74963;SDS011;63521;51.900;4.748;2023-02-20T10:00:59;9.32;;;2.70;;
74963;SDS011;63521;51.900;4.748;2023-02-20T10:03:33;5.72;;;2.92;;
74963;SDS011;63521;51.900;4.748;2023-02-20T10:06:02;8.30;;;2.67;;
74963;SDS011;63521;51.900;4.748;2023-02-20T10:08:38;5.88;;;2.78;;
74963;SDS011;63521;51.900;4.748;2023-02-20T10:11:03;8.35;;;3.15;;
74963;SDS011;63521;51.900;4.748;2023-02-20T10:29:54;6.15;;;2.45;;
74963;SDS011;63521;51.900;4.748;2023-02-20T10:32:27;9.07;;;3.05;;
74963;SDS011;63521;51.900;4.748;2023-02-20T10:34:57;5.15;;;2.60;;
74963;SDS011;63521;51.900;4.748;2023-02-20T10:37:31;5.53;;;2.53;;
74963;SDS011;63521;51.900;4.748;2023-02-20T10:40:19;6.55;;;2.63;;
74963;SDS011;63521;51.900;4.748;2023-02-20T10:43:08;7.57;;;2.78;;
74963;SDS011;63521;51.900;4.748;2023-02-20T10:45:48;8.27;;;3.08;;
74963;SDS011;63521;51.900;4.748;2023-02-20T10:48:17;7.07;;;2.92;;
74963;SDS011;63521;51.900;4.748;2023-02-20T10:50:45;6.85;;;2.92;;
74963;SDS011;63521;51.900;4.748;2023-02-20T10:55:55;4.25;;;2.55;;
74963;SDS011;63521;51.900;4.748;2023-02-20T11:00:53;5.85;;;2.60;;
74963;SDS011;63521;51.900;4.748;2023-02-20T11:03:22;6.30;;;2.53;;
74963;SDS011;63521;51.900;4.748;2023-02-20T11:05:52;5.80;;;3.00;;
74963;SDS011;63521;51.900;4.748;2023-02-20T11:08:19;6.20;;;2.80;;
74963;SDS011;63521;51.900;4.748;2023-02-20T11:10:49;4.80;;;2.38;;
74963;SDS011;63521;51.900;4.748;2023-02-20T11:13:19;5.45;;;2.58;;
74963;SDS011;63521;51.900;4.748;2023-02-20T11:15:48;4.90;;;2.60;;
74963;SDS011;63521;51.900;4.748;2023-02-20T11:18:36;6.85;;;2.80;;
74963;SDS011;63521;51.900;4.748;2023-02-20T11:21:02;4.18;;;2.40;;
74963;SDS011;63521;51.900;4.748;2023-02-20T11:23:32;4.88;;;2.50;;
74963;SDS011;63521;51.900;4.748;2023-02-20T11:29:19;5.60;;;2.42;;
74963;SDS011;63521;51.900;4.748;2023-02-20T11:31:43;6.50;;;2.33;;
74963;SDS011;63521;51.900;4.748;2023-02-20T11:34:14;3.03;;;2.15;;
74963;SDS011;63521;51.900;4.748;2023-02-20T11:36:45;3.97;;;2.20;;
74963;SDS011;63521;51.900;4.748;2023-02-20T11:41:44;3.95;;;1.98;;
74963;SDS011;63521;51.900;4.748;2023-02-20T11:46:37;2.95;;;2.00;;
74963;SDS011;63521;51.900;4.748;2023-02-20T11:49:07;2.78;;;1.83;;
74963;SDS011;63521;51.900;4.748;2023-02-20T11:54:20;5.70;;;2.08;;
74963;SDS011;63521;51.900;4.748;2023-02-20T11:56:54;3.95;;;2.08;;
74963;SDS011;63521;51.900;4.748;2023-02-20T12:04:44;4.47;;;1.70;;
74963;SDS011;63521;51.900;4.748;2023-02-20T12:07:26;4.82;;;1.80;;
74963;SDS011;63521;51.900;4.748;2023-02-20T12:10:09;5.25;;;1.80;;
74963;SDS011;63521;51.900;4.748;2023-02-20T12:12:46;2.60;;;1.70;;
74963;SDS011;63521;51.900;4.748;2023-02-20T12:15:15;5.68;;;1.95;;
74963;SDS011;63521;51.900;4.748;2023-02-20T12:20:26;4.68;;;1.92;;
74963;SDS011;63521;51.900;4.748;2023-02-20T12:23:00;7.32;;;1.90;;
74963;SDS011;63521;51.900;4.748;2023-02-20T12:28:39;4.13;;;1.80;;
74963;SDS011;63521;51.900;4.748;2023-02-20T12:31:31;3.75;;;2.00;;
74963;SDS011;63521;51.900;4.748;2023-02-20T12:36:49;4.07;;;1.67;;
74963;SDS011;63521;51.900;4.748;2023-02-20T12:44:56;3.65;;;1.80;;
74963;SDS011;63521;51.900;4.748;2023-02-20T12:47:31;1.92;;;1.38;;
74963;SDS011;63521;51.900;4.748;2023-02-20T12:52:37;5.57;;;1.63;;
74963;SDS011;63521;51.900;4.748;2023-02-20T13:00:39;3.88;;;1.58;;
74963;SDS011;63521;51.900;4.748;2023-02-20T13:03:07;2.53;;;1.45;;
74963;SDS011;63521;51.900;4.748;2023-02-20T13:05:39;3.42;;;1.48;;
74963;SDS011;63521;51.900;4.748;2023-02-20T13:10:57;2.83;;;1.60;;
74963;SDS011;63521;51.900;4.748;2023-02-20T13:16:36;2.55;;;1.40;;
74963;SDS011;63521;51.900;4.748;2023-02-20T13:19:18;4.45;;;1.63;;
74963;SDS011;63521;51.900;4.748;2023-02-20T13:22:05;1.90;;;1.27;;
74963;SDS011;63521;51.900;4.748;2023-02-20T13:24:32;3.05;;;1.75;;
74963;SDS011;63521;51.900;4.748;2023-02-20T13:27:07;4.68;;;1.50;;
74963;SDS011;63521;51.900;4.748;2023-02-20T13:29:37;3.42;;;1.83;;
74963;SDS011;63521;51.900;4.748;2023-02-20T13:32:20;4.22;;;1.70;;
74963;SDS011;63521;51.900;4.748;2023-02-20T13:34:48;4.28;;;1.58;;
74963;SDS011;63521;51.900;4.748;2023-02-20T13:40:03;5.80;;;1.92;;
74963;SDS011;63521;51.900;4.748;2023-02-20T13:45:36;3.47;;;1.60;;
74963;SDS011;63521;51.900;4.748;2023-02-20T13:48:18;2.42;;;1.50;;
74963;SDS011;63521;51.900;4.748;2023-02-20T13:56:53;4.60;;;2.00;;
74963;SDS011;63521;51.900;4.748;2023-02-20T13:59:23;3.40;;;1.60;;
74963;SDS011;63521;51.900;4.748;2023-02-20T14:04:20;4.32;;;1.83;;
74963;SDS011;63521;51.900;4.748;2023-02-20T14:06:50;2.85;;;1.60;;
74963;SDS011;63521;51.900;4.748;2023-02-20T14:09:18;3.35;;;1.80;;
74963;SDS011;63521;51.900;4.748;2023-02-20T14:11:48;4.35;;;1.73;;
74963;SDS011;63521;51.900;4.748;2023-02-20T14:14:23;2.88;;;1.80;;
74963;SDS011;63521;51.900;4.748;2023-02-20T14:16:52;4.18;;;1.90;;
74963;SDS011;63521;51.900;4.748;2023-02-20T14:19:27;3.00;;;1.48;;
74963;SDS011;63521;51.900;4.748;2023-02-20T14:21:54;2.35;;;1.60;;
74963;SDS011;63521;51.900;4.748;2023-02-20T14:24:23;5.50;;;1.75;;
74963;SDS011;63521;51.900;4.748;2023-02-20T14:26:50;4.00;;;1.90;;
74963;SDS011;63521;51.900;4.748;2023-02-20T14:29:24;3.72;;;1.80;;
74963;SDS011;63521;51.900;4.748;2023-02-20T14:31:51;4.70;;;1.60;;
74963;SDS011;63521;51.900;4.748;2023-02-20T14:34:23;3.50;;;1.63;;
74963;SDS011;63521;51.900;4.748;2023-02-20T14:42:25;3.45;;;1.45;;
74963;SDS011;63521;51.900;4.748;2023-02-20T14:45:04;3.58;;;1.60;;
74963;SDS011;63521;51.900;4.748;2023-02-20T14:47:33;3.22;;;1.50;;
74963;SDS011;63521;51.900;4.748;2023-02-20T14:52:46;2.58;;;1.70;;
74963;SDS011;63521;51.900;4.748;2023-02-20T14:55:16;2.20;;;1.50;;
74963;SDS011;63521;51.900;4.748;2023-02-20T14:57:42;4.15;;;1.55;;
74963;SDS011;63521;51.900;4.748;2023-02-20T15:02:34;3.25;;;1.58;;
74963;SDS011;63521;51.900;4.748;2023-02-20T15:05:04;2.17;;;1.33;;
74963;SDS011;63521;51.900;4.748;2023-02-20T15:07:32;2.47;;;1.50;;
74963;SDS011;63521;51.900;4.748;2023-02-20T15:10:02;5.43;;;1.95;;
74963;SDS011;63521;51.900;4.748;2023-02-20T15:12:33;3.53;;;1.73;;
74963;SDS011;63521;51.900;4.748;2023-02-20T15:15:11;3.67;;;1.55;;
74963;SDS011;63521;51.900;4.748;2023-02-20T15:17:39;3.17;;;1.77;;
74963;SDS011;63521;51.900;4.748;2023-02-20T15:20:28;2.25;;;1.40;;
74963;SDS011;63521;51.900;4.748;2023-02-20T15:25:51;3.15;;;1.52;;
74963;SDS011;63521;51.900;4.748;2023-02-20T15:33:34;2.25;;;1.40;;
74963;SDS011;63521;51.900;4.748;2023-02-20T15:36:05;2.30;;;1.52;;
74963;SDS011;63521;51.900;4.748;2023-02-20T15:38:32;2.70;;;1.50;;
74963;SDS011;63521;51.900;4.748;2023-02-20T15:40:59;4.20;;;1.50;;
74963;SDS011;63521;51.900;4.748;2023-02-20T15:43:26;2.50;;;1.50;;
74963;SDS011;63521;51.900;4.748;2023-02-20T15:45:57;4.38;;;1.63;;
74963;SDS011;63521;51.900;4.748;2023-02-20T15:48:24;3.03;;;1.50;;
74963;SDS011;63521;51.900;4.748;2023-02-20T15:50:49;3.65;;;1.58;;
74963;SDS011;63521;51.900;4.748;2023-02-20T15:53:17;3.15;;;1.70;;
74963;SDS011;63521;51.900;4.748;2023-02-20T15:55:45;2.50;;;1.50;;
74963;SDS011;63521;51.900;4.748;2023-02-20T15:58:24;3.22;;;1.60;;
74963;SDS011;63521;51.900;4.748;2023-02-20T16:00:52;4.47;;;2.10;;
74963;SDS011;63521;51.900;4.748;2023-02-20T16:03:19;3.13;;;1.67;;
74963;SDS011;63521;51.900;4.748;2023-02-20T16:05:49;2.13;;;1.52;;
74963;SDS011;63521;51.900;4.748;2023-02-20T16:08:14;3.30;;;1.67;;
74963;SDS011;63521;51.900;4.748;2023-02-20T16:10:40;3.33;;;1.58;;
74963;SDS011;63521;51.900;4.748;2023-02-20T16:13:11;3.83;;;1.50;;
74963;SDS011;63521;51.900;4.748;2023-02-20T16:15:45;3.42;;;1.90;;
74963;SDS011;63521;51.900;4.748;2023-02-20T16:18:10;4.57;;;1.70;;
74963;SDS011;63521;51.900;4.748;2023-02-20T16:20:36;2.20;;;1.58;;
74963;SDS011;63521;51.900;4.748;2023-02-20T16:23:01;2.78;;;1.73;;
74963;SDS011;63521;51.900;4.748;2023-02-20T16:25:30;3.55;;;1.73;;
74963;SDS011;63521;51.900;4.748;2023-02-20T16:27:55;3.20;;;1.75;;
74963;SDS011;63521;51.900;4.748;2023-02-20T16:30:22;2.95;;;1.83;;
74963;SDS011;63521;51.900;4.748;2023-02-20T16:32:56;3.08;;;1.77;;
74963;SDS011;63521;51.900;4.748;2023-02-20T16:35:21;4.75;;;2.33;;
74963;SDS011;63521;51.900;4.748;2023-02-20T16:37:47;2.65;;;1.60;;
74963;SDS011;63521;51.900;4.748;2023-02-20T16:40:13;2.88;;;1.90;;
74963;SDS011;63521;51.900;4.748;2023-02-20T16:42:39;3.20;;;1.77;;
74963;SDS011;63521;51.900;4.748;2023-02-20T16:45:15;3.33;;;1.70;;
74963;SDS011;63521;51.900;4.748;2023-02-20T16:47:42;3.28;;;2.15;;
74963;SDS011;63521;51.900;4.748;2023-02-20T16:50:12;3.42;;;2.10;;
74963;SDS011;63521;51.900;4.748;2023-02-20T16:55:18;3.53;;;1.73;;
74963;SDS011;63521;51.900;4.748;2023-02-20T17:01:14;2.75;;;1.67;;
74963;SDS011;63521;51.900;4.748;2023-02-20T17:03:39;2.78;;;1.55;;
74963;SDS011;63521;51.900;4.748;2023-02-20T17:06:04;2.63;;;1.75;;
74963;SDS011;63521;51.900;4.748;2023-02-20T17:08:30;2.88;;;1.80;;
74963;SDS011;63521;51.900;4.748;2023-02-20T17:10:55;3.63;;;1.90;;
74963;SDS011;63521;51.900;4.748;2023-02-20T17:13:21;2.25;;;1.60;;
74963;SDS011;63521;51.900;4.748;2023-02-20T17:15:51;2.95;;;1.60;;
74963;SDS011;63521;51.900;4.748;2023-02-20T17:18:46;2.47;;;1.63;;